El Redomon, Argentina
Current Conditions -  °F | °C
As of 6:00 PM on Thursday 23 Oct 2014 (Local Time) from SBUG Reporting Station
Clear Clear  
Wind Chill: 29°   Ceiling: Unl
Heat Index: 29°   Visibility: 6mi
Dew Point: 15°   Wind: 2mph
Humidity: 42%   Direction: 20°NNE
Pressure: 29.88"   Gusts: NA
Location:  31.14°S, 58.23°W
Report Text: SBUG 232100Z 02002KT CAVOK 29/15 Q1012
Loading
Personal Weather Stations






























Interactive Weather Map
Tropical Storm Tracking
New forecast layout! Learn more

10-Day Weather Forecast

Advertisements
Track Severe Weather on mobile